Terminal Aerodrome Forecast
Issued by NWS

Home | Current Version | Previous Version | Text Only | Print | Product List | Glossary On
Versions: 1 2 3 4 5 6 7 8 9 10 11
987
FTUS42 TJSJ 251144
TAFJSJ
TAF
TJSJ 251144Z 2512/2612 09004KT P6SM FEW050
     FM251300 08015KT P6SM FEW030 FEW060
     FM252300 10008KT P6SM FEW060=

USA.gov is the U.S. government's official web portal to all federal, state and local government web resources and services.